createdAt,value
2022-11-20T00:00:05.251Z,1001
2022-11-20T00:03:05.149Z,1001
2022-11-20T00:06:05.167Z,1001
2022-11-20T00:09:05.164Z,1001
2022-11-20T00:12:05.192Z,1001
2022-11-20T00:15:05.144Z,1001
2022-11-20T00:18:05.141Z,1001
2022-11-20T00:21:05.071Z,1001
2022-11-20T00:24:05.203Z,1001
2022-11-20T00:27:05.461Z,1001
2022-11-20T00:30:05.176Z,1001
2022-11-20T00:33:05.137Z,1001
2022-11-20T00:36:05.164Z,1001
2022-11-20T00:39:05.148Z,1001
2022-11-20T00:42:05.120Z,1001
2022-11-20T00:45:05.161Z,1000
2022-11-20T00:48:05.164Z,1000
2022-11-20T00:51:05.110Z,1000
2022-11-20T00:54:05.144Z,1000
2022-11-20T00:57:05.162Z,1000
2022-11-20T01:00:05.196Z,1000
2022-11-20T01:03:05.465Z,1000
2022-11-20T01:06:05.099Z,1000
2022-11-20T01:09:05.183Z,1000
2022-11-20T01:12:05.212Z,1000
2022-11-20T01:15:05.107Z,1000
2022-11-20T01:18:05.178Z,1000
2022-11-20T01:21:05.410Z,1000
2022-11-20T01:24:05.181Z,1000
2022-11-20T01:27:05.190Z,1000
2022-11-20T01:30:06.072Z,1000
2022-11-20T01:33:05.113Z,1001
2022-11-20T01:36:05.184Z,1001
2022-11-20T01:39:05.186Z,1001
2022-11-20T01:42:12.975Z,1000
2022-11-20T01:45:05.115Z,1000
2022-11-20T01:48:05.067Z,1000
2022-11-20T01:51:05.128Z,1000
2022-11-20T01:54:05.185Z,1000
2022-11-20T01:57:05.163Z,1000
2022-11-20T02:00:05.207Z,1000
2022-11-20T02:03:05.155Z,1000
2022-11-20T02:06:05.340Z,1000
2022-11-20T02:09:05.121Z,1000
2022-11-20T02:12:05.381Z,1000
2022-11-20T02:15:05.503Z,1000
2022-11-20T02:18:05.286Z,1000
2022-11-20T02:21:05.229Z,1000
2022-11-20T02:24:05.228Z,1000
2022-11-20T02:27:05.259Z,1000
2022-11-20T02:30:05.241Z,1000
2022-11-20T02:33:05.107Z,1000
2022-11-20T02:36:05.300Z,1000
2022-11-20T02:39:05.148Z,1000
2022-11-20T02:42:05.251Z,1000
2022-11-20T02:45:05.263Z,1000
2022-11-20T02:48:07.446Z,1000
2022-11-20T02:51:05.158Z,1000
2022-11-20T02:54:05.155Z,1000
2022-11-20T02:57:05.144Z,1000
2022-11-20T03:00:05.158Z,1000
2022-11-20T03:03:05.215Z,1000
2022-11-20T03:06:05.162Z,1000
2022-11-20T03:09:05.173Z,1000
2022-11-20T03:12:05.229Z,1000
2022-11-20T03:15:05.149Z,1000
2022-11-20T03:18:05.118Z,1000
2022-11-20T03:21:05.158Z,999
2022-11-20T03:24:05.197Z,999
2022-11-20T03:27:05.151Z,999
2022-11-20T03:30:05.220Z,999
2022-11-20T03:33:05.215Z,999
2022-11-20T03:36:05.140Z,999
2022-11-20T03:39:05.154Z,999
2022-11-20T03:42:05.117Z,999
2022-11-20T03:45:05.129Z,999
2022-11-20T03:48:05.162Z,999
2022-11-20T03:51:05.182Z,999
2022-11-20T03:54:05.177Z,999
2022-11-20T03:57:05.141Z,999
2022-11-20T04:00:05.173Z,999
2022-11-20T04:03:05.137Z,999
2022-11-20T04:06:05.131Z,999
2022-11-20T04:09:05.177Z,999
2022-11-20T04:12:05.152Z,999
2022-11-20T04:15:05.160Z,999
2022-11-20T04:18:05.166Z,999
2022-11-20T04:21:05.091Z,999
2022-11-20T04:24:05.164Z,999
2022-11-20T04:27:05.188Z,999
2022-11-20T04:30:05.217Z,999
2022-11-20T04:33:05.166Z,999
2022-11-20T04:36:05.138Z,999
2022-11-20T04:39:05.186Z,999
2022-11-20T04:42:05.215Z,999
2022-11-20T04:45:05.185Z,999
2022-11-20T04:48:05.146Z,999
2022-11-20T04:51:05.237Z,999
2022-11-20T04:54:05.173Z,999
2022-11-20T04:57:05.790Z,999
2022-11-20T05:00:05.516Z,999
2022-11-20T05:03:05.181Z,999
2022-11-20T05:06:05.174Z,999
2022-11-20T05:09:05.165Z,999
2022-11-20T05:12:05.145Z,999
2022-11-20T05:15:05.179Z,999
2022-11-20T05:18:05.191Z,999
2022-11-20T05:21:05.177Z,999
2022-11-20T05:24:05.827Z,999
2022-11-20T05:27:05.152Z,999
2022-11-20T05:30:05.155Z,999
2022-11-20T05:33:05.292Z,999
2022-11-20T05:36:05.184Z,999
2022-11-20T05:39:06.583Z,999
2022-11-20T05:42:05.141Z,999
2022-11-20T05:45:06.000Z,999
2022-11-20T05:48:05.134Z,999
2022-11-20T05:51:05.115Z,999
2022-11-20T05:54:05.078Z,999
2022-11-20T05:57:05.099Z,999
2022-11-20T06:00:05.164Z,999
2022-11-20T06:03:05.350Z,999
2022-11-20T06:06:05.134Z,999
2022-11-20T06:09:05.124Z,999
2022-11-20T06:12:05.148Z,999
2022-11-20T06:15:05.239Z,999
2022-11-20T06:18:05.120Z,999
2022-11-20T06:21:05.142Z,999
2022-11-20T06:24:05.226Z,999
2022-11-20T06:27:05.090Z,999
2022-11-20T06:30:05.166Z,999
2022-11-20T06:33:05.121Z,999
2022-11-20T06:36:14.502Z,999
2022-11-20T06:39:05.150Z,999
2022-11-20T06:42:05.146Z,999
2022-11-20T06:45:05.257Z,999
2022-11-20T06:48:05.227Z,999
2022-11-20T06:51:05.179Z,999
2022-11-20T06:54:05.229Z,999
2022-11-20T06:57:05.193Z,999
2022-11-20T07:00:05.324Z,999
2022-11-20T07:03:05.231Z,999
2022-11-20T07:06:05.226Z,999
2022-11-20T07:09:08.609Z,999
2022-11-20T07:12:05.200Z,999
2022-11-20T07:15:05.160Z,999
2022-11-20T07:18:05.272Z,999
2022-11-20T07:21:05.222Z,999
2022-11-20T07:24:05.147Z,999
2022-11-20T07:27:05.203Z,999
2022-11-20T07:30:05.233Z,999
2022-11-20T07:33:05.209Z,999
2022-11-20T07:36:05.164Z,999
2022-11-20T07:39:05.242Z,999
2022-11-20T07:42:05.182Z,999
2022-11-20T07:45:05.245Z,999
2022-11-20T07:48:05.192Z,999
2022-11-20T07:51:05.182Z,999
2022-11-20T07:54:05.171Z,999
2022-11-20T07:57:05.194Z,999
2022-11-20T08:00:05.297Z,999
2022-11-20T08:03:05.159Z,999
2022-11-20T08:06:05.204Z,999
2022-11-20T08:09:05.190Z,999
2022-11-20T08:12:05.255Z,999
2022-11-20T08:15:08.494Z,999
2022-11-20T08:18:36.781Z,999
2022-11-20T08:21:05.191Z,999
2022-11-20T08:24:05.130Z,999
2022-11-20T08:27:05.218Z,999
2022-11-20T08:30:05.261Z,999
2022-11-20T08:33:05.142Z,999
2022-11-20T08:36:05.230Z,999
2022-11-20T08:39:05.290Z,999
2022-11-20T08:42:05.169Z,999
2022-11-20T08:45:05.213Z,999
2022-11-20T08:48:05.247Z,999
2022-11-20T08:51:05.187Z,999
2022-11-20T08:54:05.147Z,999
2022-11-20T08:57:05.152Z,999
2022-11-20T09:00:12.726Z,999
2022-11-20T09:03:05.227Z,999
2022-11-20T09:06:05.150Z,999
2022-11-20T09:09:11.855Z,999
2022-11-20T09:12:05.146Z,999
2022-11-20T09:15:05.204Z,999
2022-11-20T09:18:05.202Z,999
2022-11-20T09:21:05.452Z,999
2022-11-20T09:24:05.326Z,999
2022-11-20T09:27:05.179Z,999
2022-11-20T09:30:05.340Z,999
2022-11-20T09:33:05.201Z,999
2022-11-20T09:36:05.144Z,999
2022-11-20T09:39:05.235Z,998
2022-11-20T09:42:05.175Z,998
2022-11-20T09:45:05.165Z,998
2022-11-20T09:48:05.178Z,998
2022-11-20T09:51:05.158Z,998
2022-11-20T09:54:05.229Z,998
2022-11-20T09:57:05.434Z,998
2022-11-20T10:00:05.295Z,998
2022-11-20T10:03:05.149Z,998
2022-11-20T10:06:05.160Z,998
2022-11-20T10:09:05.217Z,998
2022-11-20T10:12:05.202Z,998
2022-11-20T10:15:05.191Z,998
2022-11-20T10:18:05.371Z,998
2022-11-20T10:21:05.205Z,998
2022-11-20T10:24:05.222Z,998
2022-11-20T10:27:05.207Z,998
2022-11-20T10:30:05.219Z,998
2022-11-20T10:33:05.156Z,998
2022-11-20T10:36:05.139Z,998
2022-11-20T10:39:05.799Z,998
2022-11-20T10:42:05.237Z,998
2022-11-20T10:45:11.368Z,998
2022-11-20T10:48:05.248Z,998
2022-11-20T10:51:05.189Z,998
2022-11-20T10:54:05.242Z,998
2022-11-20T10:57:05.152Z,998
2022-11-20T11:00:05.312Z,998
2022-11-20T11:03:05.326Z,998
2022-11-20T11:06:05.322Z,998
2022-11-20T11:09:05.255Z,998
2022-11-20T11:12:11.898Z,998
2022-11-20T11:15:05.175Z,998
2022-11-20T11:18:05.266Z,998
2022-11-20T11:21:05.187Z,998
2022-11-20T11:24:45.767Z,998
2022-11-20T11:27:05.254Z,998
2022-11-20T11:30:05.261Z,998
2022-11-20T11:33:05.210Z,998
2022-11-20T11:36:05.191Z,998
2022-11-20T11:39:05.189Z,998
2022-11-20T11:42:05.187Z,998
2022-11-20T11:45:05.194Z,998
2022-11-20T11:48:05.186Z,998
2022-11-20T11:51:05.230Z,998
2022-11-20T11:54:05.237Z,998
2022-11-20T11:57:05.203Z,998
2022-11-20T12:00:05.253Z,998
2022-11-20T12:03:05.321Z,998
2022-11-20T12:06:05.282Z,998
2022-11-20T12:09:05.170Z,998
2022-11-20T12:12:05.138Z,997
2022-11-20T12:15:05.237Z,997
2022-11-20T12:18:05.213Z,997
2022-11-20T12:21:05.226Z,997
2022-11-20T12:24:05.190Z,997
2022-11-20T12:27:05.195Z,998
2022-11-20T12:30:05.285Z,998
2022-11-20T12:33:05.256Z,998
2022-11-20T12:36:05.332Z,998
2022-11-20T12:39:05.230Z,998
2022-11-20T12:42:05.284Z,998
2022-11-20T12:45:05.173Z,998
2022-11-20T12:48:05.228Z,998
2022-11-20T12:51:20.604Z,997
2022-11-20T12:54:05.298Z,997
2022-11-20T12:57:08.746Z,997
2022-11-20T13:00:05.331Z,997
2022-11-20T13:03:05.227Z,997
2022-11-20T13:06:05.213Z,997
2022-11-20T13:09:05.440Z,997
2022-11-20T13:12:05.263Z,997
2022-11-20T13:15:05.218Z,997
2022-11-20T13:18:05.263Z,997
2022-11-20T13:21:05.184Z,998
2022-11-20T13:24:05.254Z,998
2022-11-20T13:27:05.176Z,998
2022-11-20T13:30:05.349Z,998
2022-11-20T13:33:05.229Z,998
2022-11-20T13:36:05.232Z,998
2022-11-20T13:39:05.144Z,998
2022-11-20T13:42:05.242Z,998
2022-11-20T13:45:05.175Z,998
2022-11-20T13:48:05.256Z,998
2022-11-20T13:51:05.174Z,998
2022-11-20T13:54:05.219Z,998
2022-11-20T13:57:05.210Z,998
2022-11-20T14:00:05.559Z,998
2022-11-20T14:03:05.179Z,997
2022-11-20T14:06:05.181Z,997
2022-11-20T14:09:05.193Z,997
2022-11-20T14:12:05.178Z,997
2022-11-20T14:15:05.237Z,997
2022-11-20T14:18:05.204Z,997
2022-11-20T14:21:05.234Z,997
2022-11-20T14:24:05.161Z,997
2022-11-20T14:27:05.226Z,997
2022-11-20T14:30:05.338Z,997
2022-11-20T14:33:05.202Z,997
2022-11-20T14:36:05.190Z,997
2022-11-20T14:39:05.252Z,997
2022-11-20T14:42:05.161Z,997
2022-11-20T14:45:05.208Z,997
2022-11-20T14:48:05.232Z,997
2022-11-20T14:51:05.172Z,997
2022-11-20T14:54:05.276Z,997
2022-11-20T14:57:05.249Z,997
2022-11-20T15:00:05.325Z,997
2022-11-20T15:03:05.171Z,997
2022-11-20T15:06:05.201Z,997
2022-11-20T15:09:05.290Z,997
2022-11-20T15:12:05.148Z,997
2022-11-20T15:15:05.226Z,997
2022-11-20T15:18:05.279Z,996
2022-11-20T15:21:05.186Z,997
2022-11-20T15:24:05.172Z,997
2022-11-20T15:27:05.157Z,997
2022-11-20T15:30:05.309Z,997
2022-11-20T15:33:05.171Z,997
2022-11-20T15:36:05.551Z,997
2022-11-20T15:39:05.160Z,997
2022-11-20T15:42:05.137Z,997
2022-11-20T15:45:05.156Z,997
2022-11-20T15:48:05.137Z,997
2022-11-20T15:51:05.233Z,997
2022-11-20T15:54:05.190Z,996
2022-11-20T15:57:05.089Z,996
2022-11-20T16:00:05.178Z,996
2022-11-20T16:03:05.233Z,996
2022-11-20T16:06:05.236Z,996
2022-11-20T16:09:05.202Z,996
2022-11-20T16:12:05.204Z,997
2022-11-20T16:15:08.215Z,997
2022-11-20T16:18:05.180Z,997
2022-11-20T16:21:05.199Z,997
2022-11-20T16:24:05.169Z,997
2022-11-20T16:27:05.211Z,997
2022-11-20T16:30:05.236Z,997
2022-11-20T16:33:05.187Z,997
2022-11-20T16:36:05.158Z,996
2022-11-20T16:39:05.147Z,996
2022-11-20T16:42:05.204Z,996
2022-11-20T16:45:05.177Z,996
2022-11-20T16:48:05.196Z,996
2022-11-20T16:51:05.286Z,996
2022-11-20T16:54:05.188Z,996
2022-11-20T16:57:05.131Z,996
2022-11-20T17:00:07.357Z,996
2022-11-20T17:03:05.158Z,996
2022-11-20T17:06:05.149Z,996
2022-11-20T17:09:05.201Z,996
2022-11-20T17:12:05.184Z,996
2022-11-20T17:15:05.269Z,996
2022-11-20T17:18:05.136Z,996
2022-11-20T17:21:05.202Z,996
2022-11-20T17:24:05.129Z,996
2022-11-20T17:27:05.210Z,996
2022-11-20T17:30:05.184Z,996
2022-11-20T17:33:05.206Z,996
2022-11-20T17:36:05.482Z,996
2022-11-20T17:39:05.176Z,996
2022-11-20T17:42:05.162Z,996
2022-11-20T17:45:05.163Z,996
2022-11-20T17:48:05.150Z,996
2022-11-20T17:51:05.153Z,996
2022-11-20T17:54:05.211Z,995
2022-11-20T17:57:05.148Z,995
2022-11-20T18:00:05.223Z,996
2022-11-20T18:03:05.200Z,996
2022-11-20T18:06:05.208Z,996
2022-11-20T18:09:05.192Z,996
2022-11-20T18:12:05.186Z,995
2022-11-20T18:15:05.163Z,995
2022-11-20T18:18:05.173Z,995
2022-11-20T18:21:05.170Z,995
2022-11-20T18:24:05.169Z,995
2022-11-20T18:27:05.439Z,995
2022-11-20T18:30:05.269Z,995
2022-11-20T18:33:05.192Z,995
2022-11-20T18:36:05.139Z,995
2022-11-20T18:39:05.245Z,995
2022-11-20T18:42:05.394Z,995
2022-11-20T18:45:05.171Z,995
2022-11-20T18:48:05.178Z,995
2022-11-20T18:51:05.144Z,995
2022-11-20T18:54:05.132Z,995
2022-11-20T18:57:05.225Z,995
2022-11-20T19:00:13.769Z,995
2022-11-20T19:03:05.165Z,995
2022-11-20T19:06:05.137Z,995
2022-11-20T19:09:05.174Z,995
2022-11-20T19:12:05.136Z,995
2022-11-20T19:15:05.183Z,994
2022-11-20T19:18:05.215Z,994
2022-11-20T19:21:05.194Z,994
2022-11-20T19:24:05.193Z,994
2022-11-20T19:27:05.121Z,994
2022-11-20T19:30:05.700Z,994
2022-11-20T19:33:05.167Z,994
2022-11-20T19:36:05.232Z,994
2022-11-20T19:39:05.174Z,994
2022-11-20T19:42:05.157Z,994
2022-11-20T19:45:05.173Z,994
2022-11-20T19:48:13.120Z,994
2022-11-20T19:51:05.091Z,995
2022-11-20T19:54:05.146Z,995
2022-11-20T19:57:05.184Z,995
2022-11-20T20:00:05.236Z,995
2022-11-20T20:03:05.244Z,995
2022-11-20T20:06:05.200Z,995
2022-11-20T20:09:05.139Z,995
2022-11-20T20:12:05.206Z,995
2022-11-20T20:15:05.238Z,995
2022-11-20T20:18:05.182Z,995
2022-11-20T20:21:08.382Z,994
2022-11-20T20:24:05.112Z,994
2022-11-20T20:27:05.216Z,994
2022-11-20T20:30:05.911Z,994
2022-11-20T20:33:05.217Z,994
2022-11-20T20:36:05.188Z,994
2022-11-20T20:39:05.312Z,994
2022-11-20T20:42:05.216Z,994
2022-11-20T20:45:05.154Z,994
2022-11-20T20:48:05.185Z,994
2022-11-20T20:51:05.170Z,994
2022-11-20T20:54:05.171Z,994
2022-11-20T20:57:05.159Z,994
2022-11-20T21:00:05.173Z,994
2022-11-20T21:03:05.098Z,994
2022-11-20T21:06:05.191Z,994
2022-11-20T21:09:05.115Z,994
2022-11-20T21:12:05.163Z,993
2022-11-20T21:15:05.123Z,993
2022-11-20T21:18:05.117Z,993
2022-11-20T21:21:05.164Z,993
2022-11-20T21:24:05.252Z,993
2022-11-20T21:27:05.142Z,993
2022-11-20T21:30:05.186Z,993
2022-11-20T21:33:05.159Z,993
2022-11-20T21:36:05.188Z,993
2022-11-20T21:39:05.194Z,993
2022-11-20T21:42:05.124Z,993
2022-11-20T21:45:05.475Z,993
2022-11-20T21:48:05.168Z,993
2022-11-20T21:51:11.231Z,993
2022-11-20T21:54:05.179Z,993
2022-11-20T21:57:05.133Z,993
2022-11-20T22:00:05.278Z,993
2022-11-20T22:03:05.095Z,993
2022-11-20T22:06:05.159Z,993
2022-11-20T22:09:05.185Z,993
2022-11-20T22:12:05.136Z,993
2022-11-20T22:15:05.190Z,993
2022-11-20T22:18:05.118Z,993
2022-11-20T22:21:05.154Z,993
2022-11-20T22:24:05.172Z,993
2022-11-20T22:27:05.159Z,993
2022-11-20T22:30:05.250Z,993
2022-11-20T22:33:08.991Z,993
2022-11-20T22:36:05.194Z,992
2022-11-20T22:39:05.136Z,992
2022-11-20T22:42:05.201Z,992
2022-11-20T22:45:05.167Z,992
2022-11-20T22:48:05.180Z,992
2022-11-20T22:51:05.136Z,992
2022-11-20T22:54:05.193Z,992
2022-11-20T22:57:05.150Z,992
2022-11-20T23:00:07.673Z,992
2022-11-20T23:03:05.514Z,992
2022-11-20T23:06:05.154Z,992
2022-11-20T23:09:05.178Z,992
2022-11-20T23:12:05.143Z,992
2022-11-20T23:15:05.151Z,992
2022-11-20T23:18:05.166Z,992
2022-11-20T23:21:05.163Z,992
2022-11-20T23:24:05.198Z,992
2022-11-20T23:27:05.115Z,992
2022-11-20T23:30:05.192Z,992
2022-11-20T23:33:05.207Z,992
2022-11-20T23:36:05.120Z,992
2022-11-20T23:39:05.167Z,992
2022-11-20T23:42:05.135Z,992
2022-11-20T23:45:05.146Z,992
2022-11-20T23:48:05.126Z,992
2022-11-20T23:51:05.218Z,992
2022-11-20T23:54:09.537Z,992
2022-11-20T23:57:05.146Z,992
